createdAt,value
2022-12-27T00:01:12.234Z,100505.78
2022-12-27T00:03:46.109Z,100508.50
2022-12-27T00:06:23.433Z,100491.34
2022-12-27T00:08:58.564Z,100508.34
2022-12-27T00:11:32.805Z,100504.59
2022-12-27T00:14:08.875Z,100502.03
2022-12-27T00:16:42.893Z,100502.31
2022-12-27T00:19:18.209Z,100500.25
2022-12-27T00:21:51.474Z,100504.06
2022-12-27T00:24:24.977Z,100496.94
2022-12-27T00:26:58.406Z,100500.38
2022-12-27T00:29:34.599Z,100501.88
2022-12-27T00:32:07.881Z,100498.88
2022-12-27T00:34:41.211Z,100491.81
2022-12-27T00:37:14.569Z,100496.88
2022-12-27T00:39:48.395Z,100499.00
2022-12-27T00:42:21.910Z,100492.34
2022-12-27T00:44:57.211Z,100485.00
2022-12-27T00:47:30.888Z,100483.13
2022-12-27T00:50:04.753Z,100479.06
2022-12-27T00:52:38.057Z,100473.97
2022-12-27T00:55:11.689Z,100475.25
2022-12-27T00:57:45.650Z,100469.13
2022-12-27T01:00:20.607Z,100483.31
2022-12-27T01:02:54.193Z,100474.94
2022-12-27T01:05:27.766Z,100411.13
2022-12-27T01:08:01.420Z,100471.00
2022-12-27T01:10:35.166Z,100476.06
2022-12-27T01:13:09.723Z,100477.25
2022-12-27T01:15:45.210Z,100477.81
2022-12-27T01:18:18.810Z,100475.72
2022-12-27T01:20:52.402Z,100483.19
2022-12-27T01:23:27.743Z,100474.63
2022-12-27T01:26:02.808Z,100478.47
2022-12-27T01:28:36.726Z,100469.97
2022-12-27T01:31:14.935Z,100462.97
2022-12-27T01:33:48.915Z,100457.13
2022-12-27T01:36:24.023Z,100462.13
2022-12-27T01:38:57.846Z,100468.66
2022-12-27T01:41:51.617Z,100461.06
2022-12-27T01:44:53.483Z,100454.94
2022-12-27T01:47:36.280Z,100450.97
2022-12-27T01:50:16.857Z,100452.47
2022-12-27T01:52:56.602Z,100447.06
2022-12-27T01:55:36.095Z,100447.06
2022-12-27T01:58:14.505Z,100452.63
2022-12-27T02:00:50.002Z,100443.84
2022-12-27T02:03:30.272Z,100417.50
2022-12-27T02:06:05.659Z,100435.34
2022-12-27T02:08:45.035Z,100440.50
2022-12-27T02:11:41.359Z,100441.50
2022-12-27T02:14:17.255Z,100442.34
2022-12-27T02:16:51.140Z,100444.25
2022-12-27T02:19:34.813Z,100447.91
2022-12-27T02:22:53.303Z,100434.88
2022-12-27T02:25:44.791Z,100433.44
2022-12-27T02:28:34.311Z,100432.03
2022-12-27T02:31:13.674Z,100428.06
2022-12-27T02:33:49.956Z,100420.94
2022-12-27T02:36:27.394Z,100424.25
2022-12-27T02:39:02.685Z,100429.25
2022-12-27T02:41:54.214Z,100433.78
2022-12-27T02:44:44.885Z,100423.34
2022-12-27T02:47:39.452Z,100424.94
2022-12-27T02:50:33.179Z,100425.34
2022-12-27T02:53:13.737Z,100430.72
2022-12-27T02:56:33.167Z,100423.97
2022-12-27T02:59:21.433Z,100424.13
2022-12-27T03:02:19.247Z,100423.06
2022-12-27T03:05:07.548Z,100435.53
2022-12-27T03:07:49.707Z,100429.84
2022-12-27T03:10:50.317Z,100426.03
2022-12-27T03:13:50.956Z,100419.47
2022-12-27T03:16:28.029Z,100408.03
2022-12-27T03:19:09.175Z,100426.13
2022-12-27T03:22:16.884Z,100396.25
2022-12-27T03:25:07.320Z,100418.31
2022-12-27T03:27:44.372Z,100408.13
2022-12-27T03:30:46.872Z,100400.69
2022-12-27T03:33:20.563Z,100398.72
2022-12-27T03:36:15.486Z,100399.41
2022-12-27T03:38:56.327Z,100405.00
2022-12-27T03:41:54.452Z,100411.44
2022-12-27T03:44:28.966Z,100409.47
2022-12-27T03:47:08.055Z,100402.78
2022-12-27T03:49:47.221Z,100403.19
2022-12-27T03:52:26.507Z,100405.03
2022-12-27T03:55:02.196Z,100403.78
2022-12-27T03:57:35.978Z,100418.63
2022-12-27T04:00:11.002Z,100409.94
2022-12-27T04:02:44.428Z,100406.16
2022-12-27T04:05:18.002Z,100425.22
2022-12-27T04:08:08.839Z,100418.41
2022-12-27T04:11:01.201Z,100413.47
2022-12-27T04:13:52.527Z,100410.47
2022-12-27T04:16:43.959Z,100407.84
2022-12-27T04:19:34.333Z,100407.56
2022-12-27T04:22:25.033Z,100417.22
2022-12-27T04:25:15.802Z,100417.59
2022-12-27T04:28:08.348Z,100417.88
2022-12-27T04:30:59.007Z,100427.53
2022-12-27T04:33:49.872Z,100424.56
2022-12-27T04:36:23.839Z,100423.06
2022-12-27T04:38:57.162Z,100427.19
2022-12-27T04:41:47.869Z,100425.19
2022-12-27T04:44:39.900Z,100417.78
2022-12-27T04:47:32.213Z,100421.06
2022-12-27T04:50:28.640Z,100394.75
2022-12-27T04:53:19.552Z,100408.53
2022-12-27T04:55:52.804Z,100415.56
2022-12-27T04:58:26.169Z,100420.88
2022-12-27T05:01:20.468Z,100409.88
2022-12-27T05:03:54.614Z,100417.34
2022-12-27T05:06:28.031Z,100416.34
2022-12-27T05:09:23.182Z,100416.47
2022-12-27T05:12:14.372Z,100414.44
2022-12-27T05:14:48.071Z,100418.19
2022-12-27T05:17:23.412Z,100418.81
2022-12-27T05:19:56.779Z,100405.28
2022-12-27T05:22:47.436Z,100415.34
2022-12-27T05:25:35.614Z,100411.00
2022-12-27T05:28:11.170Z,100388.72
2022-12-27T05:30:45.098Z,100409.47
2022-12-27T05:33:19.825Z,100418.88
2022-12-27T05:35:53.587Z,100414.13
2022-12-27T05:38:27.610Z,100418.75
2022-12-27T05:41:01.330Z,100426.88
2022-12-27T05:43:35.597Z,100434.59
2022-12-27T05:46:11.556Z,100436.66
2022-12-27T05:48:46.540Z,100437.72
2022-12-27T05:51:21.883Z,100438.09
2022-12-27T05:53:55.161Z,100432.47
2022-12-27T05:56:28.549Z,100432.75
2022-12-27T05:59:02.009Z,100450.09
2022-12-27T06:01:35.563Z,100451.75
2022-12-27T06:04:10.848Z,100450.69
2022-12-27T06:06:44.663Z,100453.38
2022-12-27T06:09:17.679Z,100443.34
2022-12-27T06:11:51.780Z,100446.88
2022-12-27T06:14:25.234Z,100447.38
2022-12-27T06:16:59.176Z,100454.50
2022-12-27T06:19:33.890Z,100453.72
2022-12-27T06:22:07.397Z,100461.03
2022-12-27T06:24:40.837Z,100453.75
2022-12-27T06:27:14.843Z,100460.41
2022-12-27T06:29:49.773Z,100452.88
2022-12-27T06:32:24.285Z,100457.25
2022-12-27T06:34:58.957Z,100454.56
2022-12-27T06:37:32.887Z,100417.69
2022-12-27T06:40:08.016Z,100441.25
2022-12-27T06:42:48.843Z,100443.81
2022-12-27T06:45:22.333Z,100439.84
2022-12-27T06:47:56.783Z,100443.03
2022-12-27T06:50:31.656Z,100444.81
2022-12-27T06:53:06.164Z,100439.50
2022-12-27T06:55:40.345Z,100435.09
2022-12-27T06:58:15.084Z,100441.06
2022-12-27T07:00:48.616Z,100449.75
2022-12-27T07:03:22.597Z,100453.75
2022-12-27T07:05:57.743Z,100445.09
2022-12-27T07:08:31.831Z,100452.63
2022-12-27T07:11:07.882Z,100446.47
2022-12-27T07:13:44.274Z,100443.34
2022-12-27T07:16:23.157Z,100442.34
2022-12-27T07:18:58.923Z,100437.44
2022-12-27T07:21:37.878Z,100446.25
2022-12-27T07:24:11.497Z,100446.59
2022-12-27T07:26:44.966Z,100436.06
2022-12-27T07:29:18.649Z,100448.91
2022-12-27T07:31:52.187Z,100448.22
2022-12-27T07:34:26.147Z,100447.84
2022-12-27T07:37:01.363Z,100436.25
2022-12-27T07:39:35.354Z,100440.25
2022-12-27T07:42:09.310Z,100433.75
2022-12-27T07:44:42.949Z,100437.72
2022-12-27T07:47:16.964Z,100430.53
2022-12-27T07:49:51.251Z,100435.53
2022-12-27T07:52:27.104Z,100420.56
2022-12-27T07:55:00.782Z,100427.91
2022-12-27T07:57:34.311Z,100419.38
2022-12-27T08:00:09.460Z,100420.53
2022-12-27T08:02:43.731Z,100411.06
2022-12-27T08:05:20.361Z,100417.50
2022-12-27T08:08:01.368Z,100401.13
2022-12-27T08:10:36.172Z,100409.66
2022-12-27T08:13:10.727Z,100403.69
2022-12-27T08:15:45.220Z,100405.81
2022-12-27T08:18:18.702Z,100403.22
2022-12-27T08:20:52.537Z,100411.50
2022-12-27T08:23:27.458Z,100406.03
2022-12-27T08:26:00.963Z,100401.94
2022-12-27T08:28:34.697Z,100400.44
2022-12-27T08:31:09.352Z,100388.47
2022-12-27T08:33:43.062Z,100399.56
2022-12-27T08:39:12.452Z,100373.53
2022-12-27T08:41:45.871Z,100388.28
2022-12-27T08:44:19.917Z,100388.59
2022-12-27T08:46:53.417Z,100398.00
2022-12-27T08:49:26.852Z,100378.41
2022-12-27T08:52:00.363Z,100379.66
2022-12-27T08:54:35.212Z,100378.22
2022-12-27T08:57:08.544Z,100381.34
2022-12-27T08:59:41.968Z,100374.22
2022-12-27T09:02:15.579Z,100373.69
2022-12-27T09:04:50.809Z,100334.38
2022-12-27T09:07:24.050Z,100360.38
2022-12-27T09:09:59.055Z,100355.78
2022-12-27T09:12:34.171Z,100345.84
2022-12-27T09:15:09.680Z,100352.31
2022-12-27T09:17:43.402Z,100341.19
2022-12-27T09:20:16.696Z,100335.34
2022-12-27T09:22:50.159Z,100334.50
2022-12-27T09:25:25.098Z,100327.63
2022-12-27T09:28:00.034Z,100317.19
2022-12-27T09:30:33.569Z,100315.78
2022-12-27T09:33:06.949Z,100323.28
2022-12-27T09:35:40.321Z,100309.94
2022-12-27T09:38:13.641Z,100316.09
2022-12-27T09:40:55.583Z,100305.28
2022-12-27T09:43:38.748Z,100315.81
2022-12-27T09:46:18.343Z,100317.03
2022-12-27T09:48:53.833Z,100302.44
2022-12-27T09:51:33.636Z,100301.69
2022-12-27T09:54:14.997Z,100294.44
2022-12-27T09:57:18.850Z,100269.44
2022-12-27T09:59:49.062Z,100283.16
2022-12-27T10:02:25.283Z,100288.91
2022-12-27T10:05:19.943Z,100280.19
2022-12-27T10:08:12.020Z,100277.25
2022-12-27T10:10:55.113Z,100280.91
2022-12-27T10:13:43.104Z,100258.91
2022-12-27T10:16:25.450Z,100273.09
2022-12-27T10:19:25.904Z,100265.06
2022-12-27T10:22:26.475Z,100267.72
2022-12-27T10:25:15.083Z,100266.75
2022-12-27T10:27:59.747Z,100263.84
2022-12-27T10:30:41.530Z,100248.22
2022-12-27T10:33:29.455Z,100247.63
2022-12-27T10:36:16.237Z,100245.06
2022-12-27T10:38:49.897Z,100241.44
2022-12-27T10:41:45.168Z,100241.66
2022-12-27T10:44:18.634Z,100232.59
2022-12-27T10:46:56.350Z,100214.28
2022-12-27T10:49:31.636Z,100236.09
2022-12-27T10:52:10.161Z,100176.16
2022-12-27T10:54:53.301Z,100234.84
2022-12-27T10:57:28.761Z,100236.31
2022-12-27T11:00:20.481Z,100196.75
2022-12-27T11:02:57.382Z,100215.38
2022-12-27T11:05:37.129Z,100204.84
2022-12-27T11:08:20.968Z,100205.03
2022-12-27T11:11:13.310Z,100202.69
2022-12-27T11:13:48.318Z,100193.00
2022-12-27T11:16:30.393Z,100199.56
2022-12-27T11:19:05.768Z,100191.47
2022-12-27T11:21:40.393Z,100195.31
2022-12-27T11:24:17.412Z,100188.56
2022-12-27T11:26:54.261Z,100180.41
2022-12-27T11:29:30.802Z,100182.41
2022-12-27T11:32:08.893Z,100178.88
2022-12-27T11:34:49.099Z,100182.50
2022-12-27T11:37:25.536Z,100175.28
2022-12-27T11:40:22.425Z,100180.41
2022-12-27T11:43:04.798Z,100168.03
2022-12-27T11:45:41.707Z,100171.75
2022-12-27T11:48:25.591Z,100146.53
2022-12-27T11:51:23.378Z,100161.78
2022-12-27T11:54:15.059Z,100160.69
2022-12-27T11:56:54.130Z,100161.84
2022-12-27T11:59:40.838Z,100161.19
2022-12-27T12:02:37.307Z,100157.22
2022-12-27T12:05:48.248Z,100146.84
2022-12-27T12:08:49.813Z,100148.38
2022-12-27T12:11:34.738Z,100151.31
2022-12-27T12:14:36.500Z,100151.41
2022-12-27T12:17:32.458Z,100147.38
2022-12-27T12:20:33.263Z,100153.06
2022-12-27T12:23:14.936Z,100146.28
2022-12-27T12:26:15.890Z,100149.19
2022-12-27T12:29:19.281Z,100136.28
2022-12-27T12:32:31.554Z,100137.31
2022-12-27T12:35:24.267Z,100136.09
2022-12-27T12:38:12.290Z,100131.59
2022-12-27T12:41:27.042Z,100134.31
2022-12-27T12:44:41.483Z,100142.91
2022-12-27T12:47:31.041Z,100144.56
2022-12-27T12:50:24.435Z,100137.25
2022-12-27T12:53:11.195Z,100146.13
2022-12-27T12:55:55.293Z,100147.94
2022-12-27T12:58:51.459Z,100143.16
2022-12-27T13:01:43.766Z,100146.75
2022-12-27T13:04:38.340Z,100135.28
2022-12-27T13:07:41.493Z,100081.81
2022-12-27T13:10:40.801Z,100136.47
2022-12-27T13:13:24.278Z,100145.53
2022-12-27T13:16:15.772Z,100145.47
2022-12-27T13:19:01.528Z,100138.19
2022-12-27T13:21:54.738Z,100132.78
2022-12-27T13:24:43.699Z,100152.28
2022-12-27T13:27:24.040Z,100154.59
2022-12-27T13:30:07.231Z,100148.88
2022-12-27T13:32:57.441Z,100155.94
2022-12-27T13:35:42.667Z,100154.41
2022-12-27T13:38:33.319Z,100148.34
2022-12-27T13:41:30.150Z,100137.06
2022-12-27T13:44:35.701Z,100141.25
2022-12-27T13:47:35.487Z,100150.84
2022-12-27T13:50:43.714Z,100146.59
2022-12-27T13:53:37.664Z,100150.91
2022-12-27T13:56:52.600Z,100150.22
2022-12-27T13:59:43.360Z,100149.38
2022-12-27T14:02:34.747Z,100157.19
2022-12-27T14:05:48.192Z,100155.59
2022-12-27T14:08:34.274Z,100153.84
2022-12-27T14:11:21.046Z,100168.31
2022-12-27T14:13:57.160Z,100157.19
2022-12-27T14:16:43.160Z,100158.03
2022-12-27T14:19:40.857Z,100153.84
2022-12-27T14:22:49.691Z,100141.22
2022-12-27T14:26:00.672Z,100149.09
2022-12-27T14:29:01.261Z,100150.91
2022-12-27T14:31:57.688Z,100150.84
2022-12-27T14:35:01.300Z,100134.09
2022-12-27T14:37:53.864Z,100157.38
2022-12-27T14:40:51.495Z,100156.69
2022-12-27T14:43:51.863Z,100170.59
2022-12-27T14:47:04.793Z,100172.72
2022-12-27T14:50:24.014Z,100154.63
2022-12-27T14:53:32.657Z,100172.91
2022-12-27T14:56:20.247Z,100165.81
2022-12-27T14:59:14.802Z,100168.91
2022-12-27T15:01:57.359Z,100171.47
2022-12-27T15:05:07.819Z,100175.13
2022-12-27T15:08:20.481Z,100178.53
2022-12-27T15:11:04.903Z,100147.72
2022-12-27T15:13:53.580Z,100182.94
2022-12-27T15:16:39.470Z,100170.94
2022-12-27T15:19:32.227Z,100180.19
2022-12-27T15:22:16.847Z,100176.38
2022-12-27T15:24:54.465Z,100191.94
2022-12-27T15:27:34.305Z,100187.47
2022-12-27T15:30:22.226Z,100191.31
2022-12-27T15:33:05.033Z,100191.53
2022-12-27T15:35:56.093Z,100186.63
2022-12-27T15:38:53.475Z,100205.34
2022-12-27T15:41:58.767Z,100212.94
2022-12-27T15:44:51.889Z,100219.94
2022-12-27T15:47:52.258Z,100208.34
2022-12-27T15:50:45.528Z,100216.84
2022-12-27T15:53:38.607Z,100226.63
2022-12-27T15:56:24.926Z,100231.09
2022-12-27T15:59:37.024Z,100234.94
2022-12-27T16:02:32.890Z,100241.19
2022-12-27T16:05:13.637Z,100242.16
2022-12-27T16:07:50.154Z,100251.91
2022-12-27T16:10:51.114Z,100245.53
2022-12-27T16:13:43.665Z,100254.91
2022-12-27T16:16:51.984Z,100257.88
2022-12-27T16:20:07.400Z,100254.69
2022-12-27T16:22:42.999Z,100259.78
2022-12-27T16:25:30.621Z,100214.22
2022-12-27T16:28:11.027Z,100263.25
2022-12-27T16:30:48.223Z,100266.53
2022-12-27T16:33:37.627Z,100269.88
2022-12-27T16:36:20.032Z,100271.53
2022-12-27T16:39:22.948Z,100271.47
2022-12-27T16:42:02.984Z,100273.81
2022-12-27T16:44:57.481Z,100273.44
2022-12-27T16:47:57.092Z,100283.81
2022-12-27T16:51:03.281Z,100288.09
2022-12-27T16:53:52.841Z,100272.50
2022-12-27T16:56:28.591Z,100301.56
2022-12-27T16:59:01.973Z,100314.06
2022-12-27T17:02:00.576Z,100267.75
2022-12-27T17:05:00.444Z,100322.91
2022-12-27T17:07:46.958Z,100327.09
2022-12-27T17:10:58.268Z,100330.34
2022-12-27T17:13:42.160Z,100342.31
2022-12-27T17:16:23.870Z,100336.06
2022-12-27T17:19:02.836Z,100320.19
2022-12-27T17:21:38.677Z,100314.00
2022-12-27T17:24:17.679Z,100339.41
2022-12-27T17:27:06.392Z,100341.72
2022-12-27T17:29:55.768Z,100350.66
2022-12-27T17:32:45.828Z,100341.34
2022-12-27T17:35:29.529Z,100355.66
2022-12-27T17:38:16.114Z,100356.34
2022-12-27T17:41:01.417Z,100359.66
2022-12-27T17:44:05.000Z,100348.09
2022-12-27T17:46:47.071Z,100351.22
2022-12-27T17:49:27.728Z,100344.84
2022-12-27T17:52:20.616Z,100353.84
2022-12-27T17:55:25.586Z,100342.84
2022-12-27T17:58:01.979Z,100352.00
2022-12-27T18:00:37.964Z,100366.28
2022-12-27T18:03:15.362Z,100360.69
2022-12-27T18:05:49.536Z,100369.28
2022-12-27T18:08:29.656Z,100370.78
2022-12-27T18:11:05.369Z,100371.66
2022-12-27T18:13:40.847Z,100369.53
2022-12-27T18:16:17.880Z,100373.13
2022-12-27T18:18:53.882Z,100373.56
2022-12-27T18:21:30.095Z,100355.22
2022-12-27T18:24:25.165Z,100375.88
2022-12-27T18:27:04.622Z,100380.25
2022-12-27T18:29:38.217Z,100382.78
2022-12-27T18:32:14.403Z,100398.75
2022-12-27T18:34:52.460Z,100402.97
2022-12-27T18:37:27.184Z,100409.25
2022-12-27T18:40:05.279Z,100409.50
2022-12-27T18:42:44.780Z,100420.19
2022-12-27T18:45:23.145Z,100430.16
2022-12-27T18:48:00.287Z,100428.75
2022-12-27T18:50:35.663Z,100411.59
2022-12-27T18:53:24.587Z,100434.66
2022-12-27T18:56:01.883Z,100433.25
2022-12-27T18:58:36.086Z,100436.94
2022-12-27T19:01:30.616Z,100431.63
2022-12-27T19:04:21.016Z,100440.06
2022-12-27T19:07:09.823Z,100440.34
2022-12-27T19:09:55.081Z,100441.50
2022-12-27T19:12:35.233Z,100441.94
2022-12-27T19:15:17.299Z,100430.94
2022-12-27T19:17:54.469Z,100454.91
2022-12-27T19:20:30.477Z,100465.06
2022-12-27T19:23:08.860Z,100469.44
2022-12-27T19:25:43.843Z,100475.78
2022-12-27T19:28:27.805Z,100452.03
2022-12-27T19:31:18.540Z,100476.22
2022-12-27T19:33:55.704Z,100473.94
2022-12-27T19:36:32.590Z,100477.63
2022-12-27T19:39:12.430Z,100473.09
2022-12-27T19:41:45.845Z,100481.16
2022-12-27T19:44:21.059Z,100483.91
2022-12-27T19:46:54.381Z,100485.59
2022-12-27T19:49:44.608Z,100485.78
2022-12-27T19:52:20.858Z,100491.25
2022-12-27T19:55:01.414Z,100481.75
2022-12-27T19:57:35.132Z,100495.03
2022-12-27T20:00:15.392Z,100492.47
2022-12-27T20:02:48.850Z,100495.22
2022-12-27T20:06:12.569Z,100500.53
2022-12-27T20:08:25.558Z,100496.94
2022-12-27T20:10:59.190Z,100502.41
2022-12-27T20:13:33.485Z,100477.81
2022-12-27T20:16:10.939Z,100509.22
2022-12-27T20:18:44.991Z,100517.75
2022-12-27T20:21:20.103Z,100520.75
2022-12-27T20:23:53.540Z,100504.91
2022-12-27T20:26:26.973Z,100515.09
2022-12-27T20:29:01.212Z,100511.97
2022-12-27T20:31:43.863Z,100516.00
2022-12-27T20:34:18.023Z,100511.63
2022-12-27T20:36:55.106Z,100518.88
2022-12-27T20:39:28.748Z,100514.84
2022-12-27T20:42:02.424Z,100521.03
2022-12-27T20:44:35.704Z,100528.91
2022-12-27T20:47:10.393Z,100507.94
2022-12-27T20:49:43.852Z,100517.50
2022-12-27T20:52:17.442Z,100519.84
2022-12-27T20:54:51.084Z,100526.31
2022-12-27T20:57:24.941Z,100529.56
2022-12-27T20:59:58.158Z,100531.91
2022-12-27T21:02:32.961Z,100541.47
2022-12-27T21:05:07.359Z,100536.84
2022-12-27T21:07:40.725Z,100545.00
2022-12-27T21:10:14.454Z,100531.19
2022-12-27T21:12:48.973Z,100543.00
2022-12-27T21:15:24.255Z,100554.50
2022-12-27T21:17:58.961Z,100545.75
2022-12-27T21:20:32.216Z,100541.13
2022-12-27T21:23:05.687Z,100552.69
2022-12-27T21:25:39.773Z,100549.19
2022-12-27T21:28:13.272Z,100551.22
2022-12-27T21:30:56.412Z,100556.69
2022-12-27T21:33:31.810Z,100555.31
2022-12-27T21:36:07.621Z,100538.13
2022-12-27T21:38:41.087Z,100559.91
2022-12-27T21:41:16.321Z,100549.41
2022-12-27T21:43:50.375Z,100557.25
2022-12-27T21:46:25.635Z,100559.06
2022-12-27T21:49:02.416Z,100561.72
2022-12-27T21:51:36.766Z,100556.59
2022-12-27T21:54:10.745Z,100554.38
2022-12-27T21:56:44.116Z,100544.78
2022-12-27T21:59:17.397Z,100548.19
2022-12-27T22:01:52.534Z,100545.44
2022-12-27T22:04:27.784Z,100562.47
2022-12-27T22:07:01.421Z,100564.34
2022-12-27T22:09:34.751Z,100563.50
2022-12-27T22:12:08.861Z,100558.28
2022-12-27T22:14:42.869Z,100555.72
2022-12-27T22:17:17.735Z,100546.06
2022-12-27T22:19:52.659Z,100555.56
2022-12-27T22:22:26.078Z,100550.72
2022-12-27T22:24:59.819Z,100549.25
2022-12-27T22:27:33.276Z,100555.94
2022-12-27T22:30:07.781Z,100561.31
2022-12-27T22:32:41.095Z,100561.25
2022-12-27T22:35:16.263Z,100571.72
2022-12-27T22:37:49.863Z,100577.72
2022-12-27T22:40:31.037Z,100574.50
2022-12-27T22:43:15.639Z,100573.28
2022-12-27T22:45:53.773Z,100550.53
2022-12-27T22:48:27.348Z,100559.09
2022-12-27T22:51:07.417Z,100553.88
2022-12-27T22:53:41.379Z,100558.59
2022-12-27T22:56:16.311Z,100545.75
2022-12-27T22:58:50.116Z,100552.63
2022-12-27T23:01:27.652Z,100538.81
2022-12-27T23:04:02.489Z,100565.09
2022-12-27T23:06:37.858Z,100562.50
2022-12-27T23:09:11.704Z,100562.72
2022-12-27T23:11:48.271Z,100561.88
2022-12-27T23:14:21.952Z,100555.72
2022-12-27T23:16:55.608Z,100568.00
2022-12-27T23:19:28.890Z,100562.38
2022-12-27T23:22:03.566Z,100556.66
2022-12-27T23:24:37.100Z,100563.22
2022-12-27T23:27:10.844Z,100561.25
2022-12-27T23:29:44.383Z,100559.81
2022-12-27T23:32:17.611Z,100568.34
2022-12-27T23:34:52.570Z,100557.59
2022-12-27T23:37:27.179Z,100552.91
2022-12-27T23:40:00.513Z,100558.13
2022-12-27T23:42:34.157Z,100565.16
2022-12-27T23:45:08.641Z,100538.88
2022-12-27T23:47:41.837Z,100548.94
2022-12-27T23:50:20.736Z,100555.00
2022-12-27T23:52:55.767Z,100557.56
2022-12-27T23:55:29.477Z,100564.75
2022-12-27T23:58:03.103Z,100568.00
